createdAt,value
2022-11-27T00:02:03.561Z,102616.06
2022-11-27T00:04:34.301Z,102614.22
2022-11-27T00:07:08.367Z,102617.69
2022-11-27T00:09:39.533Z,102611.50
2022-11-27T00:12:13.239Z,102620.50
2022-11-27T00:14:44.387Z,102607.56
2022-11-27T00:17:15.414Z,102616.22
2022-11-27T00:19:46.736Z,102611.78
2022-11-27T00:22:17.378Z,102608.97
2022-11-27T00:24:47.658Z,102594.44
2022-11-27T00:27:18.430Z,102591.03
2022-11-27T00:29:49.030Z,102592.66
2022-11-27T00:32:22.141Z,102604.06
2022-11-27T00:34:52.254Z,102590.81
2022-11-27T00:37:26.637Z,102595.09
2022-11-27T00:39:58.867Z,102598.91
2022-11-27T00:42:30.962Z,102600.53
2022-11-27T00:45:02.902Z,102608.34
2022-11-27T00:47:34.345Z,102604.81
2022-11-27T00:50:06.605Z,102594.25
2022-11-27T00:52:37.334Z,102608.44
2022-11-27T00:55:10.409Z,102599.66
2022-11-27T00:57:40.956Z,102611.88
2022-11-27T01:00:15.246Z,102598.13
2022-11-27T01:02:47.017Z,102595.47
2022-11-27T01:05:18.451Z,102575.19
2022-11-27T01:07:49.992Z,102603.09
2022-11-27T01:10:21.711Z,102590.22
2022-11-27T01:12:52.945Z,102588.69
2022-11-27T01:15:25.271Z,102610.84
2022-11-27T01:17:56.836Z,102603.91
2022-11-27T01:20:28.047Z,102584.44
2022-11-27T01:23:01.910Z,102600.28
2022-11-27T01:25:37.814Z,102597.91
2022-11-27T01:28:09.175Z,102588.22
2022-11-27T01:30:40.259Z,102585.81
2022-11-27T01:33:10.898Z,102590.94
2022-11-27T01:35:42.261Z,102586.63
2022-11-27T01:38:13.668Z,102581.56
2022-11-27T01:40:44.592Z,102586.72
2022-11-27T01:43:19.215Z,102586.84
2022-11-27T01:45:52.602Z,102590.41
2022-11-27T01:48:24.645Z,102581.31
2022-11-27T01:50:55.207Z,102590.22
2022-11-27T01:53:26.359Z,102590.41
2022-11-27T01:56:01.493Z,102601.25
2022-11-27T01:58:35.993Z,102587.41
2022-11-27T02:01:08.971Z,102595.31
2022-11-27T02:03:41.241Z,102609.06
2022-11-27T02:06:15.504Z,102605.84
2022-11-27T02:08:46.705Z,102597.25
2022-11-27T02:11:50.198Z,102606.81
2022-11-27T02:14:33.722Z,102609.31
2022-11-27T02:17:23.857Z,102618.75
2022-11-27T02:20:36.376Z,102610.19
2022-11-27T02:23:23.673Z,102611.75
2022-11-27T02:26:19.352Z,102610.84
2022-11-27T02:29:04.418Z,102614.22
2022-11-27T02:31:59.294Z,102621.06
2022-11-27T02:34:45.712Z,102623.47
2022-11-27T02:37:27.238Z,102614.00
2022-11-27T02:40:13.705Z,102610.44
2022-11-27T02:42:47.908Z,102603.34
2022-11-27T02:45:26.393Z,102610.34
2022-11-27T02:48:01.099Z,102598.22
2022-11-27T02:50:34.757Z,102606.19
2022-11-27T02:53:12.246Z,102611.41
2022-11-27T02:55:46.372Z,102609.66
2022-11-27T02:58:20.451Z,102631.28
2022-11-27T03:00:56.428Z,102625.25
2022-11-27T03:03:35.438Z,102621.22
2022-11-27T03:06:13.792Z,102608.34
2022-11-27T03:08:54.838Z,102617.13
2022-11-27T03:11:27.381Z,102613.59
2022-11-27T03:14:03.090Z,102618.00
2022-11-27T03:16:36.291Z,102610.38
2022-11-27T03:19:38.120Z,102604.38
2022-11-27T03:22:10.352Z,102608.56
2022-11-27T03:24:43.752Z,102604.97
2022-11-27T03:27:19.010Z,102604.25
2022-11-27T03:29:56.393Z,102581.31
2022-11-27T03:32:29.342Z,102606.09
2022-11-27T03:35:00.545Z,102583.97
2022-11-27T03:37:30.961Z,102583.91
2022-11-27T03:40:06.072Z,102605.84
2022-11-27T03:43:19.037Z,102598.03
2022-11-27T03:45:52.670Z,102600.06
2022-11-27T03:48:36.560Z,102605.22
2022-11-27T03:51:29.338Z,102605.25
2022-11-27T03:54:03.510Z,102596.44
2022-11-27T03:56:52.996Z,102615.75
2022-11-27T03:59:35.919Z,102621.63
2022-11-27T04:02:07.977Z,102620.59
2022-11-27T04:04:41.276Z,102616.41
2022-11-27T04:07:21.357Z,102620.91
2022-11-27T04:09:52.412Z,102599.66
2022-11-27T04:12:23.703Z,102614.06
2022-11-27T04:14:54.591Z,102615.75
2022-11-27T04:17:28.476Z,102609.63
2022-11-27T04:20:01.091Z,102611.38
2022-11-27T04:22:34.680Z,102615.16
2022-11-27T04:25:08.745Z,102602.28
2022-11-27T04:27:41.167Z,102607.34
2022-11-27T04:30:12.585Z,102612.81
2022-11-27T04:32:43.823Z,102611.22
2022-11-27T04:35:15.480Z,102608.41
2022-11-27T04:37:48.180Z,102616.44
2022-11-27T04:40:20.570Z,102611.22
2022-11-27T04:42:52.743Z,102607.97
2022-11-27T04:45:23.497Z,102614.00
2022-11-27T04:47:55.199Z,102604.44
2022-11-27T04:50:28.919Z,102603.47
2022-11-27T04:53:00.530Z,102598.41
2022-11-27T04:55:31.832Z,102593.03
2022-11-27T04:58:02.362Z,102596.34
2022-11-27T05:00:36.088Z,102603.34
2022-11-27T05:03:07.070Z,102595.50
2022-11-27T05:05:40.456Z,102599.06
2022-11-27T05:08:11.920Z,102580.66
2022-11-27T05:10:44.084Z,102579.69
2022-11-27T05:13:16.148Z,102585.72
2022-11-27T05:15:46.981Z,102590.72
2022-11-27T05:18:17.900Z,102585.38
2022-11-27T05:20:50.359Z,102579.28
2022-11-27T05:23:22.048Z,102573.66
2022-11-27T05:25:53.285Z,102589.56
2022-11-27T05:28:27.307Z,102581.13
2022-11-27T05:30:58.257Z,102575.97
2022-11-27T05:33:28.630Z,102583.00
2022-11-27T05:36:01.718Z,102583.91
2022-11-27T05:38:33.190Z,102587.31
2022-11-27T05:41:05.561Z,102586.44
2022-11-27T05:43:36.186Z,102589.91
2022-11-27T05:46:09.883Z,102592.63
2022-11-27T05:48:41.209Z,102590.88
2022-11-27T05:51:13.356Z,102589.81
2022-11-27T05:53:44.061Z,102585.38
2022-11-27T05:56:17.588Z,102595.13
2022-11-27T05:58:51.215Z,102585.56
2022-11-27T06:01:22.731Z,102581.06
2022-11-27T06:03:53.461Z,102586.13
2022-11-27T06:06:26.272Z,102594.66
2022-11-27T06:08:56.903Z,102584.91
2022-11-27T06:11:28.444Z,102577.19
2022-11-27T06:13:59.092Z,102581.78
2022-11-27T06:16:29.858Z,102577.84
2022-11-27T06:19:00.814Z,102577.84
2022-11-27T06:21:31.392Z,102578.75
2022-11-27T06:24:06.982Z,102570.09
2022-11-27T06:26:37.664Z,102572.63
2022-11-27T06:29:09.662Z,102556.47
2022-11-27T06:31:41.118Z,102574.38
2022-11-27T06:34:13.631Z,102552.19
2022-11-27T06:36:44.469Z,102575.25
2022-11-27T06:39:15.859Z,102576.00
2022-11-27T06:41:46.135Z,102576.81
2022-11-27T06:44:19.208Z,102583.06
2022-11-27T06:46:50.721Z,102571.81
2022-11-27T06:49:23.537Z,102579.78
2022-11-27T06:51:53.815Z,102566.56
2022-11-27T06:54:24.811Z,102559.56
2022-11-27T06:56:56.078Z,102581.63
2022-11-27T06:59:27.084Z,102581.78
2022-11-27T07:01:59.626Z,102591.28
2022-11-27T07:04:30.349Z,102586.22
2022-11-27T07:07:01.333Z,102592.25
2022-11-27T07:09:33.122Z,102574.84
2022-11-27T07:12:08.273Z,102573.25
2022-11-27T07:14:39.506Z,102580.22
2022-11-27T07:17:10.174Z,102585.56
2022-11-27T07:19:40.838Z,102561.97
2022-11-27T07:22:12.881Z,102584.97
2022-11-27T07:24:44.618Z,102587.63
2022-11-27T07:27:15.321Z,102580.66
2022-11-27T07:29:47.038Z,102584.25
2022-11-27T07:32:18.541Z,102571.22
2022-11-27T07:34:51.672Z,102568.91
2022-11-27T07:37:24.315Z,102575.88
2022-11-27T07:40:02.390Z,102566.13
2022-11-27T07:42:39.046Z,102579.47
2022-11-27T07:45:12.558Z,102582.34
2022-11-27T07:47:44.438Z,102581.47
2022-11-27T07:50:16.249Z,102580.88
2022-11-27T07:52:48.222Z,102570.34
2022-11-27T07:55:19.041Z,102580.22
2022-11-27T07:57:50.438Z,102581.06
2022-11-27T08:00:22.483Z,102573.00
2022-11-27T08:02:54.098Z,102586.34
2022-11-27T08:05:26.107Z,102579.13
2022-11-27T08:07:56.848Z,102588.41
2022-11-27T08:10:29.543Z,102579.78
2022-11-27T08:13:02.100Z,102583.34
2022-11-27T08:15:33.027Z,102582.47
2022-11-27T08:18:04.361Z,102584.31
2022-11-27T08:20:35.863Z,102594.94
2022-11-27T08:23:08.093Z,102603.03
2022-11-27T08:25:39.037Z,102604.78
2022-11-27T08:28:10.660Z,102600.56
2022-11-27T08:30:41.653Z,102604.13
2022-11-27T08:33:15.813Z,102601.22
2022-11-27T08:35:50.669Z,102608.25
2022-11-27T08:38:22.334Z,102595.19
2022-11-27T08:41:03.064Z,102592.69
2022-11-27T08:43:34.062Z,102603.38
2022-11-27T08:46:08.774Z,102597.34
2022-11-27T08:48:39.639Z,102595.06
2022-11-27T08:51:13.561Z,102597.13
2022-11-27T08:53:46.905Z,102594.75
2022-11-27T08:56:21.635Z,102594.09
2022-11-27T08:58:53.785Z,102596.59
2022-11-27T09:01:27.976Z,102596.00
2022-11-27T09:04:00.887Z,102614.53
2022-11-27T09:06:35.406Z,102597.69
2022-11-27T09:09:07.684Z,102616.34
2022-11-27T09:11:40.398Z,102619.91
2022-11-27T09:14:15.080Z,102594.53
2022-11-27T09:16:51.141Z,102591.00
2022-11-27T09:19:22.207Z,102624.56
2022-11-27T09:21:52.999Z,102602.53
2022-11-27T09:24:24.422Z,102620.38
2022-11-27T09:26:54.596Z,102615.06
2022-11-27T09:29:24.773Z,102610.72
2022-11-27T09:31:54.984Z,102616.03
2022-11-27T09:34:25.106Z,102601.28
2022-11-27T09:36:55.312Z,102595.31
2022-11-27T09:39:30.585Z,102601.75
2022-11-27T09:42:03.270Z,102595.88
2022-11-27T09:44:43.538Z,102602.06
2022-11-27T09:47:30.500Z,102600.50
2022-11-27T09:50:27.552Z,102596.13
2022-11-27T09:53:07.440Z,102606.03
2022-11-27T09:55:43.314Z,102603.53
2022-11-27T09:58:22.367Z,102608.03
2022-11-27T10:00:52.593Z,102604.63
2022-11-27T10:03:26.540Z,102604.81
2022-11-27T10:06:22.266Z,102608.50
2022-11-27T10:09:15.205Z,102609.44
2022-11-27T10:11:57.312Z,102605.91
2022-11-27T10:15:11.374Z,102610.41
2022-11-27T10:17:55.541Z,102600.81
2022-11-27T10:20:36.333Z,102589.22
2022-11-27T10:23:24.761Z,102602.25
2022-11-27T10:26:06.740Z,102586.47
2022-11-27T10:28:46.376Z,102592.94
2022-11-27T10:31:35.621Z,102601.78
2022-11-27T10:34:33.762Z,102598.31
2022-11-27T10:37:14.492Z,102593.88
2022-11-27T10:40:23.453Z,102598.38
2022-11-27T10:42:58.807Z,102582.00
2022-11-27T10:45:58.678Z,102585.59
2022-11-27T10:48:29.791Z,102577.66
2022-11-27T10:51:00.650Z,102575.19
2022-11-27T10:53:35.900Z,102580.56
2022-11-27T10:56:15.498Z,102581.44
2022-11-27T10:59:01.379Z,102582.38
2022-11-27T11:01:46.874Z,102567.53
2022-11-27T11:04:37.601Z,102573.88
2022-11-27T11:07:29.662Z,102585.16
2022-11-27T11:09:59.923Z,102553.69
2022-11-27T11:12:30.003Z,102565.38
2022-11-27T11:15:00.899Z,102576.94
2022-11-27T11:17:37.361Z,102565.72
2022-11-27T11:20:36.929Z,102576.50
2022-11-27T11:23:07.060Z,102565.00
2022-11-27T11:25:37.342Z,102570.53
2022-11-27T11:28:18.482Z,102561.91
2022-11-27T11:31:09.773Z,102568.34
2022-11-27T11:33:50.070Z,102568.41
2022-11-27T11:36:20.586Z,102561.44
2022-11-27T11:38:52.111Z,102565.94
2022-11-27T11:41:24.068Z,102558.97
2022-11-27T11:43:57.369Z,102566.94
2022-11-27T11:46:33.852Z,102568.72
2022-11-27T11:49:28.666Z,102564.56
2022-11-27T11:52:01.797Z,102569.84
2022-11-27T11:54:47.568Z,102567.34
2022-11-27T11:57:46.564Z,102563.03
2022-11-27T12:00:26.623Z,102566.44
2022-11-27T12:03:06.192Z,102556.16
2022-11-27T12:05:48.642Z,102552.75
2022-11-27T12:08:28.148Z,102553.84
2022-11-27T12:11:10.140Z,102532.97
2022-11-27T12:13:49.467Z,102549.66
2022-11-27T12:16:50.565Z,102544.25
2022-11-27T12:19:26.733Z,102546.88
2022-11-27T12:22:24.190Z,102552.19
2022-11-27T12:25:00.274Z,102538.44
2022-11-27T12:28:04.420Z,102545.44
2022-11-27T12:31:05.026Z,102514.72
2022-11-27T12:33:47.510Z,102542.03
2022-11-27T12:36:34.085Z,102535.09
2022-11-27T12:39:17.244Z,102522.66
2022-11-27T12:42:06.056Z,102528.84
2022-11-27T12:44:45.143Z,102541.78
2022-11-27T12:47:38.927Z,102539.19
2022-11-27T12:50:24.124Z,102538.25
2022-11-27T12:53:11.761Z,102543.53
2022-11-27T12:55:47.311Z,102533.19
2022-11-27T12:58:28.462Z,102535.16
2022-11-27T13:01:12.916Z,102533.56
2022-11-27T13:04:00.647Z,102530.16
2022-11-27T13:06:35.009Z,102530.97
2022-11-27T13:09:13.333Z,102524.06
2022-11-27T13:11:44.580Z,102530.97
2022-11-27T13:14:20.625Z,102523.00
2022-11-27T13:16:56.609Z,102504.69
2022-11-27T13:19:50.217Z,102523.22
2022-11-27T13:22:32.266Z,102515.91
2022-11-27T13:25:03.092Z,102524.75
2022-11-27T13:27:36.500Z,102518.63
2022-11-27T13:30:09.439Z,102524.63
2022-11-27T13:32:52.552Z,102514.03
2022-11-27T13:35:34.625Z,102526.19
2022-11-27T13:38:22.071Z,102518.41
2022-11-27T13:40:56.168Z,102515.63
2022-11-27T13:43:29.198Z,102523.56
2022-11-27T13:46:08.680Z,102504.38
2022-11-27T13:48:42.646Z,102513.25
2022-11-27T13:51:24.698Z,102514.41
2022-11-27T13:54:08.697Z,102492.34
2022-11-27T13:56:39.724Z,102489.81
2022-11-27T13:59:39.192Z,102467.44
2022-11-27T14:02:09.983Z,102517.66
2022-11-27T14:04:55.652Z,102521.03
2022-11-27T14:07:38.366Z,102506.00
2022-11-27T14:10:27.719Z,102510.06
2022-11-27T14:13:01.738Z,102516.81
2022-11-27T14:15:35.616Z,102514.81
2022-11-27T14:18:16.888Z,102507.53
2022-11-27T14:20:57.280Z,102513.78
2022-11-27T14:23:51.117Z,102526.03
2022-11-27T14:26:24.286Z,102523.34
2022-11-27T14:28:59.798Z,102513.56
2022-11-27T14:31:45.191Z,102517.97
2022-11-27T14:34:42.254Z,102522.19
2022-11-27T14:37:38.843Z,102527.38
2022-11-27T14:40:26.164Z,102532.53
2022-11-27T14:43:09.051Z,102535.97
2022-11-27T14:45:45.045Z,102528.03
2022-11-27T14:48:43.943Z,102529.78
2022-11-27T14:51:22.544Z,102539.44
2022-11-27T14:54:26.735Z,102537.72
2022-11-27T14:56:58.232Z,102539.31
2022-11-27T14:59:28.449Z,102537.69
2022-11-27T15:02:06.756Z,102529.06
2022-11-27T15:04:39.550Z,102528.97
2022-11-27T15:07:20.531Z,102530.69
2022-11-27T15:09:54.456Z,102532.31
2022-11-27T15:12:33.802Z,102529.66
2022-11-27T15:15:09.027Z,102529.66
2022-11-27T15:17:40.378Z,102520.09
2022-11-27T15:20:24.723Z,102523.66
2022-11-27T15:22:57.225Z,102524.56
2022-11-27T15:25:37.689Z,102523.63
2022-11-27T15:28:36.584Z,102511.47
2022-11-27T15:31:22.879Z,102530.69
2022-11-27T15:33:57.597Z,102523.81
2022-11-27T15:36:35.250Z,102497.25
2022-11-27T15:39:21.554Z,102528.22
2022-11-27T15:41:56.057Z,102525.56
2022-11-27T15:44:28.486Z,102519.44
2022-11-27T15:47:01.743Z,102522.00
2022-11-27T15:49:32.619Z,102528.03
2022-11-27T15:52:02.783Z,102513.22
2022-11-27T15:54:32.938Z,102534.16
2022-11-27T15:57:03.174Z,102525.38
2022-11-27T15:59:33.277Z,102525.44
2022-11-27T16:02:04.365Z,102534.94
2022-11-27T16:04:34.672Z,102523.66
2022-11-27T16:07:05.145Z,102519.22
2022-11-27T16:09:36.289Z,102522.88
2022-11-27T16:12:06.913Z,102526.25
2022-11-27T16:14:37.164Z,102521.91
2022-11-27T16:17:07.304Z,102513.09
2022-11-27T16:19:37.762Z,102522.78
2022-11-27T16:22:07.916Z,102514.91
2022-11-27T16:24:41.087Z,102512.22
2022-11-27T16:27:11.486Z,102518.38
2022-11-27T16:29:41.695Z,102513.97
2022-11-27T16:32:12.063Z,102515.72
2022-11-27T16:34:42.586Z,102513.84
2022-11-27T16:37:18.595Z,102510.34
2022-11-27T16:39:51.939Z,102517.44
2022-11-27T16:42:22.217Z,102513.78
2022-11-27T16:44:52.495Z,102496.31
2022-11-27T16:47:22.747Z,102510.34
2022-11-27T16:49:52.925Z,102514.66
2022-11-27T16:52:23.011Z,102514.66
2022-11-27T16:54:55.088Z,102483.75
2022-11-27T16:57:25.213Z,102503.06
2022-11-27T16:59:55.323Z,102478.25
2022-11-27T17:02:28.984Z,102507.16
2022-11-27T17:04:59.270Z,102519.38
2022-11-27T17:07:30.188Z,102514.25
2022-11-27T17:10:00.669Z,102511.63
2022-11-27T17:12:32.704Z,102508.09
2022-11-27T17:15:02.864Z,102503.63
2022-11-27T17:17:39.953Z,102495.66
2022-11-27T17:20:10.710Z,102508.63
2022-11-27T17:22:40.865Z,102496.34
2022-11-27T17:25:11.353Z,102501.63
2022-11-27T17:27:41.963Z,102499.97
2022-11-27T17:30:12.332Z,102489.28
2022-11-27T17:32:42.474Z,102499.81
2022-11-27T17:35:12.647Z,102490.97
2022-11-27T17:37:43.902Z,102488.31
2022-11-27T17:40:14.481Z,102494.53
2022-11-27T17:42:44.618Z,102493.56
2022-11-27T17:45:14.803Z,102500.28
2022-11-27T17:47:44.957Z,102498.53
2022-11-27T17:50:15.227Z,102496.75
2022-11-27T17:52:45.299Z,102493.22
2022-11-27T17:55:15.471Z,102493.00
2022-11-27T17:57:45.535Z,102487.66
2022-11-27T18:00:17.209Z,102482.22
2022-11-27T18:02:47.338Z,102485.59
2022-11-27T18:05:17.845Z,102465.34
2022-11-27T18:07:48.034Z,102465.34
2022-11-27T18:10:19.247Z,102477.44
2022-11-27T18:12:49.709Z,102485.13
2022-11-27T18:15:19.726Z,102485.19
2022-11-27T18:17:49.872Z,102484.38
2022-11-27T18:20:20.090Z,102483.34
2022-11-27T18:22:50.153Z,102481.81
2022-11-27T18:25:20.425Z,102464.06
2022-11-27T18:27:50.621Z,102474.06
2022-11-27T18:30:21.401Z,102468.75
2022-11-27T18:32:51.561Z,102485.47
2022-11-27T18:35:24.179Z,102461.16
2022-11-27T18:37:54.482Z,102468.22
2022-11-27T18:40:24.583Z,102449.00
2022-11-27T18:42:54.674Z,102447.09
2022-11-27T18:45:32.908Z,102457.69
2022-11-27T18:48:03.928Z,102454.09
2022-11-27T18:50:35.049Z,102462.03
2022-11-27T18:53:05.271Z,102455.72
2022-11-27T18:55:36.049Z,102469.69
2022-11-27T18:58:06.197Z,102446.75
2022-11-27T19:00:36.273Z,102457.41
2022-11-27T19:03:06.380Z,102458.22
2022-11-27T19:05:36.762Z,102463.38
2022-11-27T19:08:09.107Z,102469.38
2022-11-27T19:10:39.200Z,102467.63
2022-11-27T19:13:09.900Z,102476.28
2022-11-27T19:15:41.457Z,102471.13
2022-11-27T19:18:11.726Z,102465.97
2022-11-27T19:20:41.869Z,102459.66
2022-11-27T19:23:11.887Z,102464.19
2022-11-27T19:25:43.435Z,102459.66
2022-11-27T19:28:13.660Z,102458.75
2022-11-27T19:30:44.235Z,102451.78
2022-11-27T19:33:14.372Z,102469.09
2022-11-27T19:35:44.649Z,102454.03
2022-11-27T19:38:14.681Z,102458.44
2022-11-27T19:40:44.863Z,102462.72
2022-11-27T19:43:14.954Z,102473.84
2022-11-27T19:45:45.154Z,102464.13
2022-11-27T19:48:19.991Z,102475.53
2022-11-27T19:50:53.175Z,102473.09
2022-11-27T19:53:23.291Z,102468.00
2022-11-27T19:55:54.975Z,102463.47
2022-11-27T19:58:25.373Z,102467.22
2022-11-27T20:00:55.617Z,102455.84
2022-11-27T20:03:25.739Z,102470.88
2022-11-27T20:06:10.228Z,102477.03
2022-11-27T20:08:41.566Z,102457.00
2022-11-27T20:11:14.751Z,102470.25
2022-11-27T20:13:44.956Z,102472.16
2022-11-27T20:16:17.476Z,102475.47
2022-11-27T20:18:47.809Z,102479.13
2022-11-27T20:21:24.224Z,102443.97
2022-11-27T20:23:54.838Z,102466.13
2022-11-27T20:26:27.333Z,102466.03
2022-11-27T20:28:58.593Z,102469.03
2022-11-27T20:31:32.551Z,102469.03
2022-11-27T20:34:04.741Z,102449.88
2022-11-27T20:36:38.803Z,102447.22
2022-11-27T20:39:13.954Z,102460.47
2022-11-27T20:41:48.027Z,102464.69
2022-11-27T20:44:18.540Z,102451.81
2022-11-27T20:46:49.808Z,102443.00
2022-11-27T20:49:20.917Z,102454.34
2022-11-27T20:51:51.004Z,102445.78
2022-11-27T20:54:26.489Z,102452.56
2022-11-27T20:56:56.645Z,102443.63
2022-11-27T20:59:29.208Z,102448.03
2022-11-27T21:02:01.714Z,102436.75
2022-11-27T21:04:31.919Z,102431.59
2022-11-27T21:07:02.104Z,102435.88
2022-11-27T21:09:32.583Z,102441.84
2022-11-27T21:12:02.701Z,102437.50
2022-11-27T21:14:33.564Z,102438.31
2022-11-27T21:17:05.186Z,102423.38
2022-11-27T21:19:35.683Z,102433.31
2022-11-27T21:22:12.919Z,102434.06
2022-11-27T21:24:42.993Z,102432.06
2022-11-27T21:27:13.286Z,102406.53
2022-11-27T21:29:44.119Z,102406.34
2022-11-27T21:32:14.643Z,102441.66
2022-11-27T21:34:44.947Z,102421.22
2022-11-27T21:37:15.308Z,102434.53
2022-11-27T21:39:45.541Z,102430.72
2022-11-27T21:42:15.688Z,102419.41
2022-11-27T21:44:45.820Z,102428.25
2022-11-27T21:47:15.970Z,102422.84
2022-11-27T21:49:46.138Z,102436.50
2022-11-27T21:52:16.282Z,102419.91
2022-11-27T21:54:46.364Z,102436.63
2022-11-27T21:57:17.624Z,102434.03
2022-11-27T21:59:47.733Z,102439.13
2022-11-27T22:02:19.264Z,102445.03
2022-11-27T22:04:49.426Z,102443.22
2022-11-27T22:07:19.628Z,102434.66
2022-11-27T22:09:49.813Z,102424.19
2022-11-27T22:12:20.039Z,102431.19
2022-11-27T22:14:50.645Z,102435.66
2022-11-27T22:17:23.879Z,102444.38
2022-11-27T22:19:54.080Z,102431.25
2022-11-27T22:22:24.380Z,102438.38
2022-11-27T22:24:54.476Z,102434.88
2022-11-27T22:27:24.664Z,102441.38
2022-11-27T22:29:54.849Z,102435.47
2022-11-27T22:32:25.046Z,102442.41
2022-11-27T22:34:55.180Z,102442.25
2022-11-27T22:37:25.325Z,102442.19
2022-11-27T22:39:56.573Z,102430.56
2022-11-27T22:42:26.752Z,102443.66
2022-11-27T22:44:56.839Z,102432.25
2022-11-27T22:47:27.046Z,102426.06
2022-11-27T22:49:57.244Z,102430.84
2022-11-27T22:52:28.348Z,102422.97
2022-11-27T22:54:58.461Z,102428.16
2022-11-27T22:57:28.597Z,102436.22
2022-11-27T22:59:58.727Z,102437.84
2022-11-27T23:02:29.465Z,102438.59
2022-11-27T23:04:59.858Z,102432.47
2022-11-27T23:07:30.049Z,102442.88
2022-11-27T23:10:00.265Z,102436.59
2022-11-27T23:12:30.462Z,102433.34
2022-11-27T23:15:01.932Z,102446.31
2022-11-27T23:17:32.047Z,102422.78
2022-11-27T23:20:02.182Z,102433.31
2022-11-27T23:22:32.348Z,102448.03
2022-11-27T23:25:02.531Z,102442.78
2022-11-27T23:27:32.665Z,102429.59
2022-11-27T23:30:02.864Z,102432.34
2022-11-27T23:32:33.827Z,102435.66
2022-11-27T23:35:04.201Z,102434.84
2022-11-27T23:37:34.265Z,102426.16
2022-11-27T23:40:05.406Z,102422.69
2022-11-27T23:42:35.924Z,102432.41
2022-11-27T23:45:06.480Z,102420.44
2022-11-27T23:47:36.733Z,102423.03
2022-11-27T23:50:07.880Z,102414.34
2022-11-27T23:52:37.960Z,102423.09
2022-11-27T23:55:08.471Z,102416.91
2022-11-27T23:57:38.548Z,102404.97
